createdAt,value
2023-01-25T00:00:46.243Z,1.90
2023-01-25T00:03:17.215Z,1.90
2023-01-25T00:05:46.583Z,2.00
2023-01-25T00:08:17.204Z,1.90
2023-01-25T00:10:46.405Z,1.80
2023-01-25T00:13:16.842Z,1.90
2023-01-25T00:15:45.890Z,1.80
2023-01-25T00:18:18.228Z,1.80
2023-01-25T00:20:47.809Z,1.30
2023-01-25T00:23:19.724Z,1.80
2023-01-25T00:25:48.987Z,1.90
2023-01-25T00:28:18.725Z,1.80
2023-01-25T00:30:47.987Z,1.80
2023-01-25T00:33:50.720Z,1.80
2023-01-25T00:36:42.588Z,1.80
2023-01-25T00:39:15.232Z,1.90
2023-01-25T00:41:45.765Z,1.90
2023-01-25T00:44:15.343Z,1.90
2023-01-25T00:46:44.876Z,2.20
2023-01-25T00:49:22.415Z,1.90
2023-01-25T00:51:52.143Z,1.90
2023-01-25T00:54:24.620Z,1.90
2023-01-25T00:56:57.122Z,1.90
2023-01-25T00:59:27.031Z,1.90
2023-01-25T01:01:57.137Z,1.90
2023-01-25T01:04:28.419Z,1.90
2023-01-25T01:06:59.988Z,1.90
2023-01-25T01:09:29.975Z,1.90
2023-01-25T01:12:00.994Z,1.80
2023-01-25T01:14:30.713Z,1.80
2023-01-25T01:17:00.498Z,2.00
2023-01-25T01:19:33.593Z,1.80
2023-01-25T01:22:08.266Z,1.80
2023-01-25T01:24:38.435Z,1.80
2023-01-25T01:27:08.009Z,1.80
2023-01-25T01:29:40.199Z,1.80
2023-01-25T01:32:09.557Z,1.80
2023-01-25T01:34:40.282Z,2.00
2023-01-25T01:37:09.674Z,2.10
2023-01-25T01:39:43.647Z,1.90
2023-01-25T01:42:13.769Z,1.90
2023-01-25T01:44:48.059Z,2.60
2023-01-25T01:47:24.287Z,1.90
2023-01-25T01:50:06.525Z,1.90
2023-01-25T01:52:41.959Z,1.80
2023-01-25T01:55:16.251Z,1.80
2023-01-25T01:57:49.937Z,1.80
2023-01-25T02:00:23.942Z,1.80
2023-01-25T02:02:55.879Z,1.80
2023-01-25T02:05:35.861Z,1.80
2023-01-25T02:08:07.432Z,1.70
2023-01-25T02:10:38.405Z,1.90
2023-01-25T02:13:09.519Z,1.90
2023-01-25T02:15:42.627Z,1.90
2023-01-25T02:18:13.572Z,1.80
2023-01-25T02:20:48.882Z,1.80
2023-01-25T02:23:27.538Z,1.80
2023-01-25T02:26:02.115Z,1.80
2023-01-25T02:28:36.344Z,2.40
2023-01-25T02:31:05.145Z,1.90
2023-01-25T02:33:34.280Z,1.90
2023-01-25T02:36:19.716Z,1.90
2023-01-25T02:38:54.424Z,1.90
2023-01-25T02:41:29.147Z,1.90
2023-01-25T02:43:58.752Z,2.30
2023-01-25T02:46:30.838Z,2.00
2023-01-25T02:49:01.386Z,2.00
2023-01-25T02:51:33.915Z,1.90
2023-01-25T02:54:04.558Z,1.90
2023-01-25T02:56:35.214Z,1.90
2023-01-25T02:59:05.965Z,2.20
2023-01-25T03:01:38.401Z,1.90
2023-01-25T03:04:09.052Z,1.90
2023-01-25T03:06:39.356Z,1.90
2023-01-25T03:09:11.499Z,1.90
2023-01-25T03:11:46.274Z,1.90
2023-01-25T03:14:15.393Z,2.10
2023-01-25T03:16:44.164Z,1.90
2023-01-25T03:19:13.145Z,1.90
2023-01-25T03:21:43.197Z,2.00
2023-01-25T03:24:12.833Z,1.90
2023-01-25T03:27:05.455Z,1.90
2023-01-25T03:29:46.047Z,1.90
2023-01-25T03:32:19.992Z,1.90
2023-01-25T03:34:49.497Z,1.90
2023-01-25T03:37:22.207Z,2.20
2023-01-25T03:39:52.052Z,1.90
2023-01-25T03:42:24.471Z,2.00
2023-01-25T03:44:58.501Z,1.80
2023-01-25T03:47:27.935Z,2.10
2023-01-25T03:49:58.019Z,1.90
2023-01-25T03:52:27.883Z,1.90
2023-01-25T03:54:57.198Z,2.10
2023-01-25T03:57:31.047Z,1.90
2023-01-25T04:00:04.800Z,1.90
2023-01-25T04:02:44.205Z,1.90
2023-01-25T04:05:18.484Z,1.90
2023-01-25T04:07:47.758Z,1.80
2023-01-25T04:10:20.744Z,2.50
2023-01-25T04:12:52.893Z,1.80
2023-01-25T04:15:22.054Z,1.80
2023-01-25T04:17:51.193Z,1.80
2023-01-25T04:20:24.990Z,2.50
2023-01-25T04:22:56.228Z,1.80
2023-01-25T04:25:31.973Z,1.70
2023-01-25T04:28:02.647Z,1.80
2023-01-25T04:30:32.449Z,1.80
2023-01-25T04:33:08.414Z,1.80
2023-01-25T04:35:37.526Z,1.80
2023-01-25T04:38:08.888Z,1.80
2023-01-25T04:40:41.414Z,1.80
2023-01-25T04:43:12.773Z,2.30
2023-01-25T04:45:43.071Z,1.80
2023-01-25T04:48:18.786Z,2.00
2023-01-25T04:50:53.534Z,1.80
2023-01-25T04:53:24.526Z,1.80
2023-01-25T04:55:55.046Z,2.10
2023-01-25T04:58:27.648Z,1.80
2023-01-25T05:01:01.580Z,1.70
2023-01-25T05:03:31.115Z,1.70
2023-01-25T05:06:00.351Z,2.00
2023-01-25T05:08:30.647Z,1.70
2023-01-25T05:11:03.795Z,1.70
2023-01-25T05:13:40.318Z,2.00
2023-01-25T05:16:33.826Z,1.70
2023-01-25T05:19:03.372Z,1.70
2023-01-25T05:22:00.566Z,2.40
2023-01-25T05:24:36.171Z,1.60
2023-01-25T05:27:08.533Z,1.60
2023-01-25T05:30:01.370Z,1.70
2023-01-25T05:32:40.472Z,1.60
2023-01-25T05:35:11.438Z,1.60
2023-01-25T05:37:41.487Z,1.60
2023-01-25T05:40:17.533Z,1.60
2023-01-25T05:42:47.213Z,1.60
2023-01-25T05:45:20.843Z,1.60
2023-01-25T05:47:54.623Z,2.10
2023-01-25T05:50:24.114Z,1.60
2023-01-25T05:53:06.307Z,1.70
2023-01-25T05:55:38.381Z,1.70
2023-01-25T05:58:11.293Z,1.70
2023-01-25T06:00:42.585Z,2.10
2023-01-25T06:03:16.869Z,2.10
2023-01-25T06:05:46.829Z,1.80
2023-01-25T06:08:15.383Z,1.70
2023-01-25T06:10:49.538Z,1.60
2023-01-25T06:13:20.609Z,1.60
2023-01-25T06:15:56.014Z,1.60
2023-01-25T06:18:50.834Z,1.70
2023-01-25T06:21:47.580Z,1.60
2023-01-25T06:24:16.981Z,1.60
2023-01-25T06:26:46.326Z,1.70
2023-01-25T06:29:15.065Z,1.60
2023-01-25T06:31:45.581Z,1.60
2023-01-25T06:34:14.859Z,1.60
2023-01-25T06:36:43.948Z,1.60
2023-01-25T06:39:13.423Z,1.60
2023-01-25T06:41:42.246Z,1.60
2023-01-25T06:44:11.365Z,1.60
2023-01-25T06:46:40.355Z,1.70
2023-01-25T06:49:12.919Z,1.70
2023-01-25T06:51:42.230Z,1.70
2023-01-25T06:54:11.232Z,1.70
2023-01-25T06:56:39.874Z,2.20
2023-01-25T06:59:10.577Z,1.60
2023-01-25T07:01:39.830Z,1.60
2023-01-25T07:04:13.267Z,1.70
2023-01-25T07:06:42.838Z,1.70
2023-01-25T07:09:14.598Z,1.70
2023-01-25T07:11:43.762Z,1.60
2023-01-25T07:14:12.827Z,1.60
2023-01-25T07:16:41.695Z,1.60
2023-01-25T07:19:14.654Z,1.60
2023-01-25T07:21:44.117Z,1.70
2023-01-25T07:24:16.755Z,2.00
2023-01-25T07:26:46.508Z,1.60
2023-01-25T07:29:16.945Z,1.60
2023-01-25T07:31:46.175Z,1.60
2023-01-25T07:34:18.542Z,1.60
2023-01-25T07:36:48.458Z,1.80
2023-01-25T07:39:17.499Z,1.60
2023-01-25T07:41:46.497Z,2.30
2023-01-25T07:44:20.044Z,1.70
2023-01-25T07:46:52.460Z,1.70
2023-01-25T07:49:23.447Z,1.80
2023-01-25T07:51:52.389Z,1.90
2023-01-25T07:54:21.363Z,1.90
2023-01-25T07:56:50.097Z,1.80
2023-01-25T07:59:19.166Z,2.10
2023-01-25T08:01:48.645Z,1.80
2023-01-25T08:04:17.995Z,1.80
2023-01-25T08:06:48.700Z,1.70
2023-01-25T08:09:20.541Z,1.70
2023-01-25T08:11:50.563Z,1.70
2023-01-25T08:14:19.717Z,1.80
2023-01-25T08:16:48.938Z,1.70
2023-01-25T08:19:20.605Z,1.80
2023-01-25T08:21:51.609Z,1.80
2023-01-25T08:24:23.354Z,1.80
2023-01-25T08:26:53.598Z,1.80
2023-01-25T08:29:22.471Z,1.80
2023-01-25T08:31:52.393Z,1.90
2023-01-25T08:34:21.344Z,1.90
2023-01-25T08:39:21.028Z,1.90
2023-01-25T08:41:50.310Z,2.00
2023-01-25T08:44:22.838Z,1.90
2023-01-25T08:46:53.064Z,1.90
2023-01-25T08:49:22.258Z,1.90
2023-01-25T08:51:53.377Z,1.90
2023-01-25T08:54:22.851Z,1.90
2023-01-25T08:56:51.517Z,1.80
2023-01-25T08:59:20.936Z,1.90
2023-01-25T09:01:50.496Z,1.80
2023-01-25T09:04:19.747Z,1.90
2023-01-25T09:06:48.967Z,1.90
2023-01-25T09:09:20.081Z,1.90
2023-01-25T09:11:49.553Z,1.90
2023-01-25T09:14:18.471Z,2.00
2023-01-25T09:16:48.933Z,2.00
2023-01-25T09:19:18.424Z,2.00
2023-01-25T09:21:48.979Z,2.10
2023-01-25T09:24:19.449Z,2.00
2023-01-25T09:26:59.088Z,2.00
2023-01-25T09:29:29.479Z,2.00
2023-01-25T09:31:59.131Z,2.00
2023-01-25T09:34:35.799Z,2.10
2023-01-25T09:37:04.699Z,2.10
2023-01-25T09:39:36.627Z,2.10
2023-01-25T09:42:28.945Z,2.10
2023-01-25T09:45:17.071Z,2.10
2023-01-25T09:47:52.729Z,2.20
2023-01-25T09:50:39.513Z,2.20
2023-01-25T09:53:26.296Z,2.20
2023-01-25T09:56:00.876Z,2.20
2023-01-25T09:58:35.719Z,2.20
2023-01-25T10:01:19.656Z,2.10
2023-01-25T10:03:58.356Z,2.10
2023-01-25T10:06:40.606Z,2.10
2023-01-25T10:09:21.470Z,2.30
2023-01-25T10:11:51.909Z,2.10
2023-01-25T10:14:22.259Z,2.20
2023-01-25T10:17:08.580Z,2.20
2023-01-25T10:19:51.179Z,2.20
2023-01-25T10:22:23.642Z,2.20
2023-01-25T10:25:26.342Z,2.30
2023-01-25T10:28:10.354Z,2.30
2023-01-25T10:30:44.414Z,2.30
2023-01-25T10:33:17.128Z,2.30
2023-01-25T10:35:48.284Z,2.40
2023-01-25T10:38:23.677Z,2.30
2023-01-25T10:40:58.385Z,2.40
2023-01-25T10:43:29.284Z,2.50
2023-01-25T10:45:58.636Z,2.50
2023-01-25T10:48:33.299Z,2.50
2023-01-25T10:51:02.828Z,2.50
2023-01-25T10:53:35.119Z,2.50
2023-01-25T10:56:22.853Z,2.50
2023-01-25T10:59:06.723Z,2.50
2023-01-25T11:01:38.364Z,2.60
2023-01-25T11:04:25.529Z,2.60
2023-01-25T11:06:54.951Z,2.60
2023-01-25T11:09:36.067Z,2.70
2023-01-25T11:12:09.189Z,2.60
2023-01-25T11:14:39.954Z,2.70
2023-01-25T11:17:25.940Z,2.70
2023-01-25T11:20:09.790Z,2.70
2023-01-25T11:22:39.546Z,2.70
2023-01-25T11:25:28.421Z,2.70
2023-01-25T11:28:23.511Z,2.80
2023-01-25T11:30:55.737Z,2.80
2023-01-25T11:33:28.414Z,2.80
2023-01-25T11:36:17.797Z,2.80
2023-01-25T11:38:57.005Z,2.80
2023-01-25T11:41:35.045Z,2.70
2023-01-25T11:44:27.385Z,2.70
2023-01-25T11:47:06.667Z,2.70
2023-01-25T11:49:49.497Z,2.70
2023-01-25T11:52:32.240Z,2.80
2023-01-25T11:55:14.110Z,2.80
2023-01-25T11:57:57.171Z,2.90
2023-01-25T12:00:42.660Z,3.00
2023-01-25T12:03:43.749Z,3.10
2023-01-25T12:06:18.718Z,3.10
2023-01-25T12:09:22.193Z,3.10
2023-01-25T12:12:14.823Z,3.10
2023-01-25T12:15:07.705Z,3.10
2023-01-25T12:17:50.675Z,3.10
2023-01-25T12:20:45.187Z,3.00
2023-01-25T12:23:28.883Z,3.10
2023-01-25T12:26:08.825Z,3.10
2023-01-25T12:28:43.569Z,3.10
2023-01-25T12:31:19.352Z,3.00
2023-01-25T12:33:53.900Z,3.00
2023-01-25T12:36:29.395Z,3.00
2023-01-25T12:39:05.178Z,2.90
2023-01-25T12:41:41.722Z,2.90
2023-01-25T12:44:19.057Z,2.90
2023-01-25T12:46:56.306Z,2.80
2023-01-25T12:49:32.065Z,2.90
2023-01-25T12:52:09.411Z,2.80
2023-01-25T12:54:43.934Z,2.80
2023-01-25T12:57:26.011Z,2.80
2023-01-25T13:00:06.305Z,2.70
2023-01-25T13:03:10.116Z,2.70
2023-01-25T13:05:44.538Z,2.70
2023-01-25T13:08:32.110Z,2.70
2023-01-25T13:11:11.409Z,2.60
2023-01-25T13:13:40.668Z,2.60
2023-01-25T13:16:38.601Z,2.70
2023-01-25T13:19:22.026Z,2.60
2023-01-25T13:21:57.124Z,2.60
2023-01-25T13:24:29.548Z,2.60
2023-01-25T13:27:25.168Z,2.60
2023-01-25T13:30:03.760Z,2.50
2023-01-25T13:33:07.646Z,2.60
2023-01-25T13:35:40.216Z,2.50
2023-01-25T13:38:39.325Z,2.50
2023-01-25T13:41:18.230Z,2.50
2023-01-25T13:43:56.347Z,2.50
2023-01-25T13:46:27.697Z,2.50
2023-01-25T13:49:05.430Z,2.50
2023-01-25T13:51:41.602Z,2.50
2023-01-25T13:54:17.748Z,2.50
2023-01-25T13:56:48.932Z,2.40
2023-01-25T13:59:29.250Z,2.40
2023-01-25T14:02:00.863Z,2.40
2023-01-25T14:04:32.109Z,2.40
2023-01-25T14:07:10.517Z,2.40
2023-01-25T14:09:42.509Z,2.40
2023-01-25T14:12:14.031Z,2.40
2023-01-25T14:14:43.166Z,2.40
2023-01-25T14:17:22.943Z,2.40
2023-01-25T14:19:55.196Z,2.30
2023-01-25T14:22:27.780Z,2.30
2023-01-25T14:25:14.194Z,2.30
2023-01-25T14:27:50.778Z,2.30
2023-01-25T14:30:23.058Z,2.20
2023-01-25T14:32:53.271Z,2.20
2023-01-25T14:35:43.033Z,2.20
2023-01-25T14:38:33.251Z,2.20
2023-01-25T14:41:16.428Z,2.30
2023-01-25T14:43:50.807Z,2.20
2023-01-25T14:46:21.306Z,2.20
2023-01-25T14:48:51.298Z,2.20
2023-01-25T14:51:27.088Z,2.10
2023-01-25T14:54:01.790Z,2.10
2023-01-25T14:56:36.683Z,2.10
2023-01-25T14:59:29.084Z,2.10
2023-01-25T15:02:02.619Z,2.10
2023-01-25T15:04:35.332Z,2.10
2023-01-25T15:07:16.739Z,2.10
2023-01-25T15:10:03.894Z,2.10
2023-01-25T15:12:34.900Z,2.10
2023-01-25T15:15:21.632Z,2.00
2023-01-25T15:17:52.124Z,2.00
2023-01-25T15:20:34.809Z,2.00
2023-01-25T15:23:16.619Z,2.00
2023-01-25T15:25:54.688Z,2.00
2023-01-25T15:28:25.322Z,2.00
2023-01-25T15:30:58.003Z,1.90
2023-01-25T15:33:29.103Z,2.00
2023-01-25T15:36:01.599Z,1.90
2023-01-25T15:38:31.215Z,1.90
2023-01-25T15:41:01.834Z,1.90
2023-01-25T15:43:31.256Z,2.00
2023-01-25T15:46:02.714Z,1.90
2023-01-25T15:48:35.019Z,1.90
2023-01-25T15:51:04.572Z,2.00
2023-01-25T15:53:33.871Z,1.90
2023-01-25T15:56:06.217Z,1.90
2023-01-25T15:58:38.052Z,1.90
2023-01-25T16:01:09.415Z,1.90
2023-01-25T16:03:41.751Z,1.90
2023-01-25T16:06:35.806Z,1.90
2023-01-25T16:09:14.094Z,1.90
2023-01-25T16:11:43.510Z,1.90
2023-01-25T16:14:12.873Z,1.90
2023-01-25T16:16:46.407Z,1.90
2023-01-25T16:19:17.406Z,1.90
2023-01-25T16:21:46.533Z,1.90
2023-01-25T16:24:17.278Z,1.90
2023-01-25T16:26:49.731Z,1.90
2023-01-25T16:29:18.675Z,1.90
2023-01-25T16:31:50.261Z,1.90
2023-01-25T16:34:20.666Z,1.80
2023-01-25T16:36:51.666Z,1.80
2023-01-25T16:39:22.253Z,1.80
2023-01-25T16:41:51.754Z,1.80
2023-01-25T16:44:21.038Z,1.80
2023-01-25T16:46:51.911Z,1.80
2023-01-25T16:49:23.104Z,1.80
2023-01-25T16:51:52.286Z,1.80
2023-01-25T16:54:21.985Z,1.80
2023-01-25T16:56:52.370Z,1.80
2023-01-25T16:59:36.575Z,1.80
2023-01-25T17:02:14.498Z,1.70
2023-01-25T17:04:43.898Z,1.70
2023-01-25T17:07:14.314Z,1.70
2023-01-25T17:09:44.327Z,1.70
2023-01-25T17:12:14.474Z,1.70
2023-01-25T17:14:44.373Z,1.70
2023-01-25T17:17:15.462Z,1.70
2023-01-25T17:19:44.498Z,1.70
2023-01-25T17:22:15.635Z,1.70
2023-01-25T17:24:45.472Z,1.70
2023-01-25T17:27:16.113Z,1.70
2023-01-25T17:29:46.480Z,1.70
2023-01-25T17:32:17.217Z,1.70
2023-01-25T17:34:46.858Z,1.70
2023-01-25T17:37:16.345Z,1.70
2023-01-25T17:39:46.587Z,1.70
2023-01-25T17:42:16.592Z,1.60
2023-01-25T17:44:45.981Z,1.60
2023-01-25T17:47:17.009Z,1.70
2023-01-25T17:49:46.941Z,1.60
2023-01-25T17:52:16.234Z,1.60
2023-01-25T17:54:45.963Z,1.60
2023-01-25T17:57:15.803Z,1.60
2023-01-25T17:59:45.107Z,1.60
2023-01-25T18:02:14.376Z,1.60
2023-01-25T18:04:45.765Z,1.60
2023-01-25T18:07:16.020Z,1.60
2023-01-25T18:09:45.568Z,1.60
2023-01-25T18:12:15.387Z,1.60
2023-01-25T18:14:45.875Z,1.60
2023-01-25T18:17:15.813Z,1.60
2023-01-25T18:19:47.113Z,1.60
2023-01-25T18:22:17.840Z,1.50
2023-01-25T18:24:47.892Z,1.50
2023-01-25T18:27:20.984Z,1.50
2023-01-25T18:29:57.009Z,1.50
2023-01-25T18:32:30.321Z,1.50
2023-01-25T18:35:01.994Z,1.50
2023-01-25T18:37:36.957Z,1.50
2023-01-25T18:40:07.208Z,1.50
2023-01-25T18:42:35.941Z,1.40
2023-01-25T18:45:05.651Z,1.50
2023-01-25T18:47:35.066Z,1.40
2023-01-25T18:50:09.909Z,1.40
2023-01-25T18:52:39.395Z,1.40
2023-01-25T18:55:09.529Z,1.40
2023-01-25T18:57:40.388Z,1.30
2023-01-25T19:00:15.441Z,1.30
2023-01-25T19:02:45.654Z,1.30
2023-01-25T19:05:19.078Z,1.30
2023-01-25T19:07:49.423Z,1.30
2023-01-25T19:10:19.080Z,1.30
2023-01-25T19:12:48.341Z,1.30
2023-01-25T19:15:17.871Z,1.30
2023-01-25T19:17:48.940Z,1.20
2023-01-25T19:20:20.479Z,1.20
2023-01-25T19:22:50.045Z,1.20
2023-01-25T19:25:19.473Z,1.20
2023-01-25T19:27:48.700Z,1.20
2023-01-25T19:30:17.980Z,1.20
2023-01-25T19:32:49.312Z,1.20
2023-01-25T19:35:20.196Z,1.20
2023-01-25T19:37:50.513Z,1.30
2023-01-25T19:40:20.816Z,1.20
2023-01-25T19:42:49.910Z,1.20
2023-01-25T19:45:18.850Z,1.20
2023-01-25T19:47:48.579Z,1.20
2023-01-25T19:50:19.033Z,1.20
2023-01-25T19:52:50.320Z,1.10
2023-01-25T19:55:20.999Z,1.10
2023-01-25T19:57:50.741Z,1.10
2023-01-25T20:00:20.819Z,1.10
2023-01-25T20:02:51.461Z,1.20
2023-01-25T20:05:21.705Z,1.10
2023-01-25T20:07:52.849Z,1.10
2023-01-25T20:10:22.261Z,1.10
2023-01-25T20:12:52.051Z,1.60
2023-01-25T20:15:23.870Z,1.10
2023-01-25T20:18:05.131Z,1.20
2023-01-25T20:20:36.595Z,1.10
2023-01-25T20:23:07.771Z,1.10
2023-01-25T20:25:37.647Z,1.10
2023-01-25T20:28:06.748Z,1.10
2023-01-25T20:30:36.285Z,1.10
2023-01-25T20:33:05.534Z,1.10
2023-01-25T20:35:35.375Z,1.10
2023-01-25T20:38:04.448Z,1.10
2023-01-25T20:40:35.288Z,1.10
2023-01-25T20:43:04.670Z,1.10
2023-01-25T20:45:35.468Z,1.20
2023-01-25T20:48:04.630Z,1.10
2023-01-25T20:50:33.515Z,1.10
2023-01-25T20:53:02.919Z,1.20
2023-01-25T20:55:32.382Z,1.20
2023-01-25T20:58:03.002Z,1.20
2023-01-25T21:00:32.246Z,1.20
2023-01-25T21:03:01.196Z,1.20
2023-01-25T21:05:32.293Z,1.20
2023-01-25T21:08:01.313Z,1.10
2023-01-25T21:10:31.184Z,1.10
2023-01-25T21:13:01.746Z,1.10
2023-01-25T21:15:30.712Z,1.10
2023-01-25T21:18:00.231Z,1.10
2023-01-25T21:20:30.111Z,1.10
2023-01-25T21:22:59.341Z,1.10
2023-01-25T21:25:28.441Z,1.10
2023-01-25T21:27:59.373Z,1.30
2023-01-25T21:30:30.764Z,1.20
2023-01-25T21:33:00.020Z,1.20
2023-01-25T21:35:29.785Z,1.10
2023-01-25T21:37:58.757Z,1.10
2023-01-25T21:40:28.959Z,1.10
2023-01-25T21:42:58.301Z,1.10
2023-01-25T21:45:46.484Z,1.10
2023-01-25T21:48:35.553Z,1.10
2023-01-25T21:51:21.976Z,1.10
2023-01-25T21:53:51.379Z,1.10
2023-01-25T21:56:20.804Z,1.10
2023-01-25T21:58:50.725Z,1.10
2023-01-25T22:01:21.985Z,1.10
2023-01-25T22:03:51.620Z,1.10
2023-01-25T22:06:23.064Z,1.10
2023-01-25T22:08:52.752Z,1.10
2023-01-25T22:11:21.610Z,1.10
2023-01-25T22:13:50.871Z,1.10
2023-01-25T22:16:21.673Z,1.70
2023-01-25T22:18:51.145Z,1.10
2023-01-25T22:21:22.154Z,1.70
2023-01-25T22:23:51.509Z,1.60
2023-01-25T22:26:22.301Z,1.10
2023-01-25T22:28:52.906Z,1.10
2023-01-25T22:31:25.464Z,1.10
2023-01-25T22:33:55.709Z,1.10
2023-01-25T22:36:28.141Z,1.10
2023-01-25T22:38:57.249Z,1.10
2023-01-25T22:41:28.100Z,1.10
2023-01-25T22:43:57.347Z,1.10
2023-01-25T22:46:30.186Z,1.00
2023-01-25T22:49:01.075Z,1.00
2023-01-25T22:51:32.815Z,1.00
2023-01-25T22:54:02.390Z,1.20
2023-01-25T22:56:33.506Z,1.00
2023-01-25T22:59:03.105Z,1.00
2023-01-25T23:01:35.291Z,1.00
2023-01-25T23:04:04.735Z,1.00
2023-01-25T23:06:35.653Z,1.00
2023-01-25T23:09:06.805Z,1.00
2023-01-25T23:11:38.080Z,1.00
2023-01-25T23:14:25.947Z,1.00
2023-01-25T23:17:17.591Z,1.00
2023-01-25T23:19:45.290Z,0.90
2023-01-25T23:22:14.354Z,0.90
2023-01-25T23:24:43.724Z,1.10
2023-01-25T23:27:13.506Z,0.90
2023-01-25T23:29:43.099Z,0.90
2023-01-25T23:32:13.599Z,1.10
2023-01-25T23:34:44.996Z,0.90
2023-01-25T23:37:16.806Z,1.00
2023-01-25T23:39:46.142Z,0.90
2023-01-25T23:42:15.399Z,0.90
2023-01-25T23:44:44.921Z,0.90
2023-01-25T23:47:15.969Z,0.90
2023-01-25T23:49:45.668Z,0.90
2023-01-25T23:52:14.267Z,0.90
2023-01-25T23:54:43.257Z,0.90
2023-01-25T23:57:12.334Z,0.80
2023-01-25T23:59:41.259Z,0.90
